Time;durP1;ratioP1;P1;durP2;ratioP2;P2;SDS_P1;SDS_P2;PMS_P1;PMS_P2;Temp;Humidity;BMP_temperature;BMP_pressure;BME280_temperature;BME280_humidity;BME280_pressure;Samples;Min_cycle;Max_cycle;Signal;HPM_P1;HPM_P2
2022/05/22 00:01:54;;;;;;;;;;;;;;;;;;4940401;28;124005;-65
2022/05/22 00:04:21;;;;;;;;;;;;;;;;;;4945904;28;136778;-66
2022/05/22 00:06:47;;;;;;;;;;;;;;;;;;4944313;28;121989;-65
2022/05/22 00:09:13;;;;;;;;;;;;;;;;;;4950344;28;135050;-65
2022/05/22 00:11:39;;;;;;;;;;;;;;;;;;4937345;28;122821;-65
2022/05/22 00:14:06;;;;;;;;;;;;;;;;;;4938910;28;118252;-66
2022/05/22 00:16:37;;;;;;;;;;;;;;;;;;4942557;28;107140;-66
2022/05/22 00:19:04;;;;;;;;;;;;;;;;;;4948572;28;107682;-66
2022/05/22 00:21:30;;;;;;;;;;;;;;;;;;4945903;28;122423;-66
2022/05/22 00:23:56;;;;;;;;;;;;;;;;;;4945779;28;129216;-65
2022/05/22 00:26:23;;;;;;;;;;;;;;;;;;4946860;28;121665;-66
2022/05/22 00:28:50;;;;;;;;;;;;;;;;;;4947970;28;127489;-65
2022/05/22 00:31:17;;;;;;;;;;;;;;;;;;4944028;28;135948;-66
2022/05/22 00:33:43;;;;;;;;;;;;;;;;;;4950716;28;121859;-65
2022/05/22 00:36:09;;;;;;;;;;;;;;;;;;4942016;28;135489;-66
2022/05/22 00:38:35;;;;;;;;;;;;;;;;;;4943885;28;110435;-66
2022/05/22 00:41:02;;;;;;;;;;;;;;;;;;4946765;28;106153;-66
2022/05/22 00:43:28;;;;;;;;;;;;;;;;;;4953576;28;135876;-66
2022/05/22 00:45:54;;;;;;;;;;;;;;;;;;4949433;28;121980;-66
2022/05/22 00:48:21;;;;;;;;;;;;;;;;;;4943941;28;135793;-66
2022/05/22 00:50:47;;;;;;;;;;;;;;;;;;4945962;28;135952;-65
2022/05/22 00:53:16;;;;;;;;;;;;;;;;;;4942778;28;107624;-66
2022/05/22 00:55:42;;;;;;;;;;;;;;;;;;4947546;28;136554;-65
2022/05/22 00:58:08;;;;;;;;;;;;;;;;;;4952475;28;135990;-65
2022/05/22 01:00:35;;;;;;;;;;;;;;;;;;4947024;28;117382;-66
2022/05/22 01:05:47;;;;;;;;;;;;;;;;;;4951019;28;111696;-65
2022/05/22 01:08:13;;;;;;;;;;;;;;;;;;4939356;28;136538;-66
2022/05/22 01:10:40;;;;;;;;;;;;;;;;;;4947893;28;137476;-65
2022/05/22 01:13:06;;;;;;;;;;;;;;;;;;4952537;22;106152;-66
2022/05/22 01:15:32;;;;;;;;;;;;;;;;;;4957419;28;137170;-65
2022/05/22 01:17:59;;;;;;;;;;;;;;;;;;4944463;28;138460;-66
2022/05/22 01:20:25;;;;;;;;;;;;;;;;;;4952883;28;125708;-65
2022/05/22 01:22:51;;;;;;;;;;;;;;;;;;4946923;28;136500;-65
2022/05/22 01:25:18;;;;;;;;;;;;;;;;;;4950496;28;108594;-66
2022/05/22 01:27:44;;;;;;;;;;;;;;;;;;4952318;28;106780;-65
2022/05/22 01:30:22;;;;;;;;;;;;;;;;;;4959790;28;108668;-66
2022/05/22 01:32:57;;;;;;;;;;;;;;;;;;4952919;28;106462;-65
2022/05/22 01:35:23;;;;;;;;;;;;;;;;;;4947560;28;109189;-66
2022/05/22 01:37:49;;;;;;;;;;;;;;;;;;4948930;28;108700;-65
2022/05/22 01:40:16;;;;;;;;;;;;;;;;;;4962710;28;106290;-66
2022/05/22 01:42:44;;;;;;;;;;;;;;;;;;4946645;28;107610;-65
2022/05/22 01:45:10;;;;;;;;;;;;;;;;;;4948026;28;106278;-66
2022/05/22 01:47:36;;;;;;;;;;;;;;;;;;4960025;28;111870;-66
2022/05/22 01:50:03;;;;;;;;;;;;;;;;;;4948829;28;107856;-66
2022/05/22 01:52:30;;;;;;;;;;;;;;;;;;4952648;28;120632;-65
2022/05/22 01:54:56;;;;;;;;;;;;;;;;;;4946158;28;139173;-65
2022/05/22 01:57:22;;;;;;;;;;;;;;;;;;4955372;28;136156;-65
2022/05/22 01:59:49;;;;;;;;;;;;;;;;;;4960687;28;119525;-66
2022/05/22 02:02:20;;;;;;;;;;;;;;;;;;4943270;28;108199;-65
2022/05/22 02:04:47;;;;;;;;;;;;;;;;;;4945594;28;137828;-65
2022/05/22 02:10:01;;;;;;;;;;;;;;;;;;4945644;28;107957;-65
2022/05/22 02:12:27;;;;;;;;;;;;;;;;;;4955929;28;120804;-66
2022/05/22 02:14:53;;;;;;;;;;;;;;;;;;4951840;28;108527;-66
2022/05/22 02:17:20;;;;;;;;;;;;;;;;;;4945342;28;135913;-66
2022/05/22 02:19:53;;;;;;;;;;;;;;;;;;4947132;28;106516;-65
2022/05/22 02:22:38;;;;;;;;;;;;;;;;;;4947162;28;107736;-66
2022/05/22 02:25:04;;;;;;;;;;;;;;;;;;4947581;28;135738;-66
2022/05/22 02:27:30;;;;;;;;;;;;;;;;;;4947190;28;122022;-66
2022/05/22 02:29:58;;;;;;;;;;;;;;;;;;4950297;28;108020;-66
2022/05/22 02:32:24;;;;;;;;;;;;;;;;;;4954096;28;124839;-67
2022/05/22 02:34:50;;;;;;;;;;;;;;;;;;4945301;28;135287;-66
2022/05/22 02:37:18;;;;;;;;;;;;;;;;;;4945727;28;109056;-66
2022/05/22 02:39:44;;;;;;;;;;;;;;;;;;4944341;28;118368;-66
2022/05/22 02:42:36;;;;;;;;;;;;;;;;;;4948108;28;106799;-66
2022/05/22 02:45:05;;;;;;;;;;;;;;;;;;4952796;28;108407;-66
2022/05/22 02:47:33;;;;;;;;;;;;;;;;;;4962614;28;105710;-66
2022/05/22 02:49:59;;;;;;;;;;;;;;;;;;4945313;28;135483;-66
2022/05/22 02:52:26;;;;;;;;;;;;;;;;;;4946413;28;109383;-66
2022/05/22 02:54:52;;;;;;;;;;;;;;;;;;4952692;28;105947;-66
2022/05/22 02:57:22;;;;;;;;;;;;;;;;;;4946829;28;109079;-66
2022/05/22 02:59:52;;;;;;;;;;;;;;;;;;4946529;28;106218;-67
2022/05/22 03:02:29;;;;;;;;;;;;;;;;;;4954531;28;107179;-66
2022/05/22 03:04:55;;;;;;;;;;;;;;;;;;4946662;28;138568;-66
2022/05/22 03:07:21;;;;;;;;;;;;;;;;;;4956823;28;125331;-66
2022/05/22 03:09:48;;;;;;;;;;;;;;;;;;4946036;28;108190;-66
2022/05/22 03:12:15;;;;;;;;;;;;;;;;;;4945799;28;131708;-66
2022/05/22 03:14:44;;;;;;;;;;;;;;;;;;4945404;28;106510;-66
2022/05/22 03:17:10;;;;;;;;;;;;;;;;;;4963501;28;134585;-66
2022/05/22 03:19:44;;;;;;;;;;;;;;;;;;4949293;28;106419;-66
2022/05/22 03:22:12;;;;;;;;;;;;;;;;;;4946698;28;108693;-66
2022/05/22 03:24:38;;;;;;;;;;;;;;;;;;4941682;28;132795;-66
2022/05/22 03:27:04;;;;;;;;;;;;;;;;;;4941488;28;120562;-66
2022/05/22 03:29:31;;;;;;;;;;;;;;;;;;4948335;28;108273;-66
2022/05/22 03:31:58;;;;;;;;;;;;;;;;;;4945334;28;109358;-65
2022/05/22 03:34:24;;;;;;;;;;;;;;;;;;4943559;28;124286;-65
2022/05/22 03:36:53;;;;;;;;;;;;;;;;;;4946476;28;108044;-66
2022/05/22 03:39:20;;;;;;;;;;;;;;;;;;4960284;28;108446;-66
2022/05/22 03:41:47;;;;;;;;;;;;;;;;;;4962910;28;108470;-65
2022/05/22 03:44:16;;;;;;;;;;;;;;;;;;4938649;28;108890;-65
2022/05/22 03:46:45;;;;;;;;;;;;;;;;;;4962926;28;106313;-65
2022/05/22 03:49:12;;;;;;;;;;;;;;;;;;4948080;28;107697;-65
2022/05/22 03:51:39;;;;;;;;;;;;;;;;;;4945198;28;109120;-66
2022/05/22 03:54:09;;;;;;;;;;;;;;;;;;4950675;28;106638;-66
2022/05/22 03:56:39;;;;;;;;;;;;;;;;;;4949427;28;107781;-66
2022/05/22 03:59:19;;;;;;;;;;;;;;;;;;4948163;28;108479;-66
2022/05/22 04:01:46;;;;;;;;;;;;;;;;;;4954515;28;106521;-66
2022/05/22 04:04:12;;;;;;;;;;;;;;;;;;4964296;28;108698;-66
2022/05/22 04:06:39;;;;;;;;;;;;;;;;;;4950258;28;106694;-66
2022/05/22 04:09:06;;;;;;;;;;;;;;;;;;4947008;28;108017;-66
2022/05/22 04:12:11;;;;;;;;;;;;;;;;;;4942301;28;108204;-65
2022/05/22 04:14:39;;;;;;;;;;;;;;;;;;4950298;28;106748;-66
2022/05/22 04:17:07;;;;;;;;;;;;;;;;;;4950339;28;108119;-66
2022/05/22 04:19:33;;;;;;;;;;;;;;;;;;4947510;28;109358;-66
2022/05/22 04:22:00;;;;;;;;;;;;;;;;;;4949738;28;106700;-66
2022/05/22 04:27:14;;;;;;;;;;;;;;;;;;4951831;28;106672;-66
2022/05/22 04:29:41;;;;;;;;;;;;;;;;;;4948880;28;138375;-66
2022/05/22 04:32:07;;;;;;;;;;;;;;;;;;4948536;28;108547;-66
2022/05/22 04:34:41;;;;;;;;;;;;;;;;;;4948419;28;106355;-66
2022/05/22 04:37:09;;;;;;;;;;;;;;;;;;4946414;28;108938;-66
2022/05/22 04:39:53;;;;;;;;;;;;;;;;;;4947022;28;108796;-65
2022/05/22 04:42:19;;;;;;;;;;;;;;;;;;4947860;28;122934;-65
2022/05/22 04:44:45;;;;;;;;;;;;;;;;;;4952347;28;106363;-65
2022/05/22 04:47:23;;;;;;;;;;;;;;;;;;4948372;28;106154;-65
2022/05/22 04:50:07;;;;;;;;;;;;;;;;;;4948069;28;106173;-64
2022/05/22 04:52:41;;;;;;;;;;;;;;;;;;4946282;28;108777;-64
2022/05/22 04:55:08;;;;;;;;;;;;;;;;;;4947942;28;106532;-64
2022/05/22 04:57:34;;;;;;;;;;;;;;;;;;4949612;28;113478;-64
2022/05/22 05:00:01;;;;;;;;;;;;;;;;;;4946260;28;107489;-63
2022/05/22 05:02:28;;;;;;;;;;;;;;;;;;4947723;28;106460;-64
2022/05/22 05:04:57;;;;;;;;;;;;;;;;;;4948399;28;107880;-63
2022/05/22 05:07:30;;;;;;;;;;;;;;;;;;4948641;28;108466;-64
2022/05/22 05:10:01;;;;;;;;;;;;;;;;;;4948173;28;109982;-67
2022/05/22 05:12:47;;;;;;;;;;;;;;;;;;4945376;28;107729;-62
2022/05/22 05:15:29;;;;;;;;;;;;;;;;;;4948655;28;106181;-62
2022/05/22 05:18:08;;;;;;;;;;;;;;;;;;4947941;28;108110;-62
2022/05/22 05:20:34;;;;;;;;;;;;;;;;;;4946464;28;134422;-64
2022/05/22 05:23:02;;;;;;;;;;;;;;;;;;4964378;28;107096;-62
2022/05/22 05:25:37;;;;;;;;;;;;;;;;;;4947411;28;108009;-69
2022/05/22 05:28:05;;;;;;;;;;;;;;;;;;4948239;28;108388;-62
2022/05/22 05:30:31;;;;;;;;;;;;;;;;;;4949794;28;120538;-62
2022/05/22 05:32:58;;;;;;;;;;;;;;;;;;4949465;28;107381;-63
2022/05/22 05:35:43;;;;;;;;;;;;;;;;;;4949665;28;106273;-63
2022/05/22 05:38:15;;;;;;;;;;;;;;;;;;4945472;28;108003;-63
2022/05/22 05:40:43;;;;;;;;;;;;;;;;;;4947770;28;107266;-63
2022/05/22 05:43:15;;;;;;;;;;;;;;;;;;4940642;28;106258;-64
2022/05/22 05:45:41;;;;;;;;;;;;;;;;;;4946615;28;136759;-64
2022/05/22 05:48:08;;;;;;;;;;;;;;;;;;4946973;28;108608;-64
2022/05/22 05:50:38;;;;;;;;;;;;;;;;;;4947039;28;106233;-64
2022/05/22 05:53:09;;;;;;;;;;;;;;;;;;4951567;28;108521;-64
2022/05/22 05:55:44;;;;;;;;;;;;;;;;;;4944944;28;107195;-64
2022/05/22 05:58:42;;;;;;;;;;;;;;;;;;4953834;28;107768;-64
2022/05/22 06:01:24;;;;;;;;;;;;;;;;;;4947394;28;108347;-65
2022/05/22 06:03:50;;;;;;;;;;;;;;;;;;4963054;28;120651;-64
2022/05/22 06:06:16;;;;;;;;;;;;;;;;;;4944953;28;137656;-63
2022/05/22 06:08:43;;;;;;;;;;;;;;;;;;4941209;28;138379;-66
2022/05/22 06:11:44;;;;;;;;;;;;;;;;;;4934381;28;106693;-64
2022/05/22 06:14:31;;;;;;;;;;;;;;;;;;4913953;28;106416;-64
2022/05/22 06:16:58;;;;;;;;;;;;;;;;;;4963486;28;108621;-64
2022/05/22 06:22:16;;;;;;;;;;;;;;;;;;4943967;28;108665;-64
2022/05/22 06:24:45;;;;;;;;;;;;;;;;;;4942059;28;106995;-64
2022/05/22 06:27:38;;;;;;;;;;;;;;;;;;4956454;28;108480;-64
2022/05/22 06:30:13;;;;;;;;;;;;;;;;;;4951885;28;108822;-65
2022/05/22 06:33:00;;;;;;;;;;;;;;;;;;4942162;28;106206;-64
2022/05/22 06:35:49;;;;;;;;;;;;;;;;;;4948676;28;107122;-64
2022/05/22 06:41:45;;;;;;;;;;;;;;;;;;4938761;28;106152;-63
2022/05/22 06:44:32;;;;;;;;;;;;;;;;;;4945778;28;108867;-64
2022/05/22 06:47:21;;;;;;;;;;;;;;;;;;4947985;28;107910;-64
2022/05/22 06:50:04;;;;;;;;;;;;;;;;;;4952495;28;108433;-66
2022/05/22 06:52:43;;;;;;;;;;;;;;;;;;4945886;28;108688;-64
2022/05/22 06:55:25;;;;;;;;;;;;;;;;;;4947435;28;106278;-64
2022/05/22 06:58:17;;;;;;;;;;;;;;;;;;4942370;28;106567;-64
2022/05/22 07:01:12;;;;;;;;;;;;;;;;;;4930122;28;106280;-64
2022/05/22 07:03:56;;;;;;;;;;;;;;;;;;4949897;28;107270;-64
2022/05/22 07:06:49;;;;;;;;;;;;;;;;;;4934525;28;106604;-63
2022/05/22 07:09:37;;;;;;;;;;;;;;;;;;4945721;28;106712;-64
2022/05/22 07:12:11;;;;;;;;;;;;;;;;;;4946928;28;108419;-64
2022/05/22 07:14:56;;;;;;;;;;;;;;;;;;4941366;28;109307;-64
2022/05/22 07:17:51;;;;;;;;;;;;;;;;;;4947921;28;107145;-64
2022/05/22 07:20:30;;;;;;;;;;;;;;;;;;4947921;28;108864;-64
2022/05/22 07:23:14;;;;;;;;;;;;;;;;;;4948356;28;108889;-64
2022/05/22 07:26:05;;;;;;;;;;;;;;;;;;4948543;28;106178;-64
2022/05/22 07:28:43;;;;;;;;;;;;;;;;;;4954776;28;106838;-64
2022/05/22 07:31:38;;;;;;;;;;;;;;;;;;4947074;28;107715;-65
2022/05/22 07:34:07;;;;;;;;;;;;;;;;;;4942518;28;106446;-64
2022/05/22 07:36:52;;;;;;;;;;;;;;;;;;4951059;28;106444;-63
2022/05/22 07:39:39;;;;;;;;;;;;;;;;;;4945368;28;109557;-63
2022/05/22 07:42:30;;;;;;;;;;;;;;;;;;4950287;28;107691;-63
2022/05/22 07:45:11;;;;;;;;;;;;;;;;;;4944026;28;106928;-64
2022/05/22 07:48:01;;;;;;;;;;;;;;;;;;4947352;28;106229;-63
2022/05/22 07:50:45;;;;;;;;;;;;;;;;;;4945999;28;105912;-64
2022/05/22 07:53:32;;;;;;;;;;;;;;;;;;4952290;28;106144;-64
2022/05/22 07:56:13;;;;;;;;;;;;;;;;;;4964597;28;108266;-64
2022/05/22 07:58:58;;;;;;;;;;;;;;;;;;4948653;28;106964;-64
2022/05/22 08:01:33;;;;;;;;;;;;;;;;;;4949451;28;106970;-64
2022/05/22 08:04:19;;;;;;;;;;;;;;;;;;4946060;28;108384;-65
2022/05/22 08:07:18;;;;;;;;;;;;;;;;;;4931815;28;106158;-64
2022/05/22 08:10:06;;;;;;;;;;;;;;;;;;4950125;28;106892;-63
2022/05/22 08:12:33;;;;;;;;;;;;;;;;;;4949208;28;108296;-66
2022/05/22 08:15:08;;;;;;;;;;;;;;;;;;4950237;28;108880;-65
2022/05/22 08:17:38;;;;;;;;;;;;;;;;;;4951732;28;106235;-64
2022/05/22 08:20:05;;;;;;;;;;;;;;;;;;4947759;28;108511;-65
2022/05/22 08:22:49;;;;;;;;;;;;;;;;;;4952269;28;106416;-65
2022/05/22 08:25:20;;;;;;;;;;;;;;;;;;4949979;28;108929;-66
2022/05/22 08:27:49;;;;;;;;;;;;;;;;;;4946869;28;108395;-66
2022/05/22 08:30:15;;;;;;;;;;;;;;;;;;4944641;28;123237;-66
2022/05/22 08:32:43;;;;;;;;;;;;;;;;;;4960923;28;108234;-66
2022/05/22 08:35:10;;;;;;;;;;;;;;;;;;4940813;28;134467;-65
2022/05/22 08:37:36;;;;;;;;;;;;;;;;;;4938404;28;123182;-66
2022/05/22 08:40:04;;;;;;;;;;;;;;;;;;4954523;28;106136;-66
2022/05/22 08:42:30;;;;;;;;;;;;;;;;;;4937245;28;121534;-66
2022/05/22 08:44:56;;;;;;;;;;;;;;;;;;4947126;28;137117;-66
2022/05/22 08:47:23;;;;;;;;;;;;;;;;;;4947053;28;138898;-67
2022/05/22 08:49:49;;;;;;;;;;;;;;;;;;4940925;28;121805;-67
2022/05/22 08:52:17;;;;;;;;;;;;;;;;;;4950309;28;136108;-68
2022/05/22 08:54:48;;;;;;;;;;;;;;;;;;4947428;28;107690;-65
2022/05/22 08:59:59;;;;;;;;;;;;;;;;;;4948850;28;137417;-65
2022/05/22 09:02:26;;;;;;;;;;;;;;;;;;4947957;28;106880;-65
2022/05/22 09:04:52;;;;;;;;;;;;;;;;;;4941623;28;137356;-65
2022/05/22 09:07:18;;;;;;;;;;;;;;;;;;4947997;28;136437;-65
2022/05/22 09:09:44;;;;;;;;;;;;;;;;;;4937253;28;117840;-66
2022/05/22 09:12:11;;;;;;;;;;;;;;;;;;4948275;28;135405;-65
2022/05/22 09:14:37;;;;;;;;;;;;;;;;;;4944493;28;137869;-67
2022/05/22 09:17:03;;;;;;;;;;;;;;;;;;4945792;28;109156;-65
2022/05/22 09:19:30;;;;;;;;;;;;;;;;;;4945076;28;127541;-66
2022/05/22 09:21:56;;;;;;;;;;;;;;;;;;4950848;28;137139;-66
2022/05/22 09:24:22;;;;;;;;;;;;;;;;;;4949523;28;130918;-67
2022/05/22 09:26:50;;;;;;;;;;;;;;;;;;4946311;28;108076;-67
2022/05/22 09:29:16;;;;;;;;;;;;;;;;;;4946368;28;124154;-66
2022/05/22 09:31:43;;;;;;;;;;;;;;;;;;4940564;28;136178;-66
2022/05/22 09:34:10;;;;;;;;;;;;;;;;;;4945980;28;107429;-66
2022/05/22 09:36:37;;;;;;;;;;;;;;;;;;4941103;28;113883;-66
2022/05/22 09:39:23;;;;;;;;;;;;;;;;;;4950634;28;106853;-67
2022/05/22 09:41:49;;;;;;;;;;;;;;;;;;4943852;28;135686;-69
2022/05/22 09:44:16;;;;;;;;;;;;;;;;;;4952386;28;106109;-65
2022/05/22 09:47:02;;;;;;;;;;;;;;;;;;4951169;28;107461;-65
2022/05/22 09:49:28;;;;;;;;;;;;;;;;;;4941645;28;122833;-65
2022/05/22 09:51:55;;;;;;;;;;;;;;;;;;4945137;28;131481;-65
2022/05/22 09:54:21;;;;;;;;;;;;;;;;;;4946344;28;137534;-67
2022/05/22 09:57:07;;;;;;;;;;;;;;;;;;4944369;28;106205;-67
2022/05/22 09:59:34;;;;;;;;;;;;;;;;;;4944835;28;132812;-68
2022/05/22 10:02:00;;;;;;;;;;;;;;;;;;4941734;28;134080;-67
2022/05/22 10:04:26;;;;;;;;;;;;;;;;;;4947632;28;123256;-67
2022/05/22 10:06:57;;;;;;;;;;;;;;;;;;4946554;28;106256;-66
2022/05/22 10:09:23;;;;;;;;;;;;;;;;;;4946114;28;123335;-66
2022/05/22 10:11:49;;;;;;;;;;;;;;;;;;4944394;28;136273;-65
2022/05/22 10:14:21;;;;;;;;;;;;;;;;;;4940323;28;124438;-66
2022/05/22 10:16:47;;;;;;;;;;;;;;;;;;4947267;28;123218;-65
2022/05/22 10:19:14;;;;;;;;;;;;;;;;;;4942026;28;136563;-65
2022/05/22 10:21:40;;;;;;;;;;;;;;;;;;4945766;28;135601;-65
2022/05/22 10:24:06;;;;;;;;;;;;;;;;;;4946048;28;122024;-63
2022/05/22 10:26:32;;;;;;;;;;;;;;;;;;4947939;28;136723;-63
2022/05/22 10:29:00;;;;;;;;;;;;;;;;;;4946400;28;137644;-64
2022/05/22 10:31:26;;;;;;;;;;;;;;;;;;4943182;28;130177;-63
2022/05/22 10:33:53;;;;;;;;;;;;;;;;;;4944388;28;135889;-62
2022/05/22 10:36:19;;;;;;;;;;;;;;;;;;4942301;28;123435;-63
2022/05/22 10:38:45;;;;;;;;;;;;;;;;;;4944618;28;137807;-63
2022/05/22 10:43:56;;;;;;;;;;;;;;;;;;4944423;28;123441;-63
2022/05/22 10:46:23;;;;;;;;;;;;;;;;;;4948300;28;136116;-63
2022/05/22 10:48:49;;;;;;;;;;;;;;;;;;4942817;28;138375;-63
2022/05/22 10:51:16;;;;;;;;;;;;;;;;;;4950478;28;117864;-63
2022/05/22 10:53:42;;;;;;;;;;;;;;;;;;4943065;28;136672;-63
2022/05/22 10:56:08;;;;;;;;;;;;;;;;;;4942779;28;123692;-63
2022/05/22 10:58:35;;;;;;;;;;;;;;;;;;4947699;28;135891;-63
2022/05/22 11:01:01;;;;;;;;;;;;;;;;;;4938949;28;134975;-63
2022/05/22 11:03:27;;;;;;;;;;;;;;;;;;4943812;28;125976;-63
2022/05/22 11:05:54;;;;;;;;;;;;;;;;;;4947029;28;136912;-63
2022/05/22 11:08:20;;;;;;;;;;;;;;;;;;4946291;28;136016;-63
2022/05/22 11:10:47;;;;;;;;;;;;;;;;;;4946938;28;122388;-63
2022/05/22 11:13:13;;;;;;;;;;;;;;;;;;4942669;28;126515;-63
2022/05/22 11:15:40;;;;;;;;;;;;;;;;;;4946833;28;125849;-63
2022/05/22 11:18:06;;;;;;;;;;;;;;;;;;4943640;28;135609;-64
2022/05/22 11:20:32;;;;;;;;;;;;;;;;;;4943321;28;137344;-64
2022/05/22 11:22:59;;;;;;;;;;;;;;;;;;4943837;28;123607;-63
2022/05/22 11:25:28;;;;;;;;;;;;;;;;;;4946790;28;107053;-63
2022/05/22 11:27:54;;;;;;;;;;;;;;;;;;4940878;28;135330;-63
2022/05/22 11:30:23;;;;;;;;;;;;;;;;;;4948280;28;107723;-63
2022/05/22 11:32:49;;;;;;;;;;;;;;;;;;4939694;28;122935;-62
2022/05/22 11:35:16;;;;;;;;;;;;;;;;;;4944883;28;117662;-62
2022/05/22 11:37:42;;;;;;;;;;;;;;;;;;4941349;28;129222;-62
2022/05/22 11:40:08;;;;;;;;;;;;;;;;;;4942208;28;107031;-62
2022/05/22 11:42:35;;;;;;;;;;;;;;;;;;4943628;28;121616;-63
2022/05/22 11:45:01;;;;;;;;;;;;;;;;;;4947107;28;136627;-62
2022/05/22 11:47:27;;;;;;;;;;;;;;;;;;4935871;28;138648;-62
2022/05/22 11:49:54;;;;;;;;;;;;;;;;;;4940003;28;122359;-64
2022/05/22 11:55:05;;;;;;;;;;;;;;;;;;4943263;28;133265;-65
2022/05/22 11:57:31;;;;;;;;;;;;;;;;;;4944764;28;135238;-64
2022/05/22 11:59:58;;;;;;;;;;;;;;;;;;4946718;28;107899;-64
2022/05/22 12:02:25;;;;;;;;;;;;;;;;;;4940903;28;123878;-64
2022/05/22 12:04:51;;;;;;;;;;;;;;;;;;4948358;28;138500;-64
2022/05/22 12:07:17;;;;;;;;;;;;;;;;;;4948632;28;140496;-64
2022/05/22 12:09:43;;;;;;;;;;;;;;;;;;4945505;28;114017;-63
2022/05/22 12:12:10;;;;;;;;;;;;;;;;;;4946030;28;136251;-63
2022/05/22 12:14:36;;;;;;;;;;;;;;;;;;4950172;28;124630;-63
2022/05/22 12:17:03;;;;;;;;;;;;;;;;;;4953925;28;107089;-63
2022/05/22 12:19:29;;;;;;;;;;;;;;;;;;4949560;28;133265;-64
2022/05/22 12:21:55;;;;;;;;;;;;;;;;;;4945839;28;123347;-64
2022/05/22 12:24:21;;;;;;;;;;;;;;;;;;4948929;28;136751;-67
2022/05/22 12:26:48;;;;;;;;;;;;;;;;;;4943314;28;137573;-66
2022/05/22 12:29:14;;;;;;;;;;;;;;;;;;4948655;28;126203;-65
2022/05/22 12:31:44;;;;;;;;;;;;;;;;;;4942779;28;137174;-66
2022/05/22 12:34:12;;;;;;;;;;;;;;;;;;4943053;28;138075;-66
2022/05/22 12:36:39;;;;;;;;;;;;;;;;;;4944215;28;123117;-66
2022/05/22 12:39:06;;;;;;;;;;;;;;;;;;4952389;28;136650;-66
2022/05/22 12:41:35;;;;;;;;;;;;;;;;;;4946460;28;106679;-65
2022/05/22 12:44:01;;;;;;;;;;;;;;;;;;4947442;28;137451;-65
2022/05/22 12:46:27;;;;;;;;;;;;;;;;;;4948160;28;136924;-66
2022/05/22 12:48:54;;;;;;;;;;;;;;;;;;4945594;28;123946;-65
2022/05/22 12:51:20;;;;;;;;;;;;;;;;;;4947486;28;137292;-67
2022/05/22 12:53:46;;;;;;;;;;;;;;;;;;4946253;28;134529;-65
2022/05/22 12:56:13;;;;;;;;;;;;;;;;;;4952614;28;123900;-69
2022/05/22 12:58:39;;;;;;;;;;;;;;;;;;4943930;28;132328;-65
2022/05/22 13:01:05;;;;;;;;;;;;;;;;;;4947713;28;139393;-66
2022/05/22 13:03:34;;;;;;;;;;;;;;;;;;4959800;28;131046;-68
2022/05/22 13:06:01;;;;;;;;;;;;;;;;;;4949286;28;138014;-66
2022/05/22 13:08:40;;;;;;;;;;;;;;;;;;4943167;28;121953;-66
2022/05/22 13:11:07;;;;;;;;;;;;;;;;;;4942176;28;137630;-64
2022/05/22 13:13:49;;;;;;;;;;;;;;;;;;4955006;28;138972;-65
2022/05/22 13:16:15;;;;;;;;;;;;;;;;;;4941966;28;124751;-63
2022/05/22 13:18:42;;;;;;;;;;;;;;;;;;4946226;28;108239;-63
2022/05/22 13:21:08;;;;;;;;;;;;;;;;;;4951772;28;130561;-63
2022/05/22 13:23:34;;;;;;;;;;;;;;;;;;4946109;28;108130;-64
2022/05/22 13:26:00;;;;;;;;;;;;;;;;;;4948430;28;138030;-63
2022/05/22 13:28:27;;;;;;;;;;;;;;;;;;4944691;28;124114;-63
2022/05/22 13:30:53;;;;;;;;;;;;;;;;;;4950106;28;139124;-63
2022/05/22 13:33:19;;;;;;;;;;;;;;;;;;4933621;28;122894;-62
2022/05/22 13:35:46;;;;;;;;;;;;;;;;;;4948247;28;107332;-63
2022/05/22 13:38:12;;;;;;;;;;;;;;;;;;4941170;28;107091;-62
2022/05/22 13:40:38;;;;;;;;;;;;;;;;;;4944049;28;136413;-63
2022/05/22 13:43:05;;;;;;;;;;;;;;;;;;4952015;28;108305;-63
2022/05/22 13:45:33;;;;;;;;;;;;;;;;;;4947497;28;129978;-64
2022/05/22 13:47:59;;;;;;;;;;;;;;;;;;4937629;28;109518;-62
2022/05/22 13:53:10;;;;;;;;;;;;;;;;;;4941960;28;137293;-62
2022/05/22 13:55:38;;;;;;;;;;;;;;;;;;4940799;28;122786;-62
2022/05/22 13:58:04;;;;;;;;;;;;;;;;;;4941236;28;130504;-64
2022/05/22 14:00:31;;;;;;;;;;;;;;;;;;4946025;28;137091;-63
2022/05/22 14:02:57;;;;;;;;;;;;;;;;;;4939404;28;124202;-62
2022/05/22 14:05:24;;;;;;;;;;;;;;;;;;4942781;28;107836;-62
2022/05/22 14:07:51;;;;;;;;;;;;;;;;;;4940344;28;125338;-62
2022/05/22 14:10:18;;;;;;;;;;;;;;;;;;4944208;28;107766;-62
2022/05/22 14:12:44;;;;;;;;;;;;;;;;;;4936714;28;136533;-62
2022/05/22 14:15:14;;;;;;;;;;;;;;;;;;4939219;28;107436;-63
2022/05/22 14:17:44;;;;;;;;;;;;;;;;;;4941621;28;108570;-62
2022/05/22 14:20:10;;;;;;;;;;;;;;;;;;4940518;28;120710;-63
2022/05/22 14:22:39;;;;;;;;;;;;;;;;;;4945227;28;108719;-62
2022/05/22 14:25:05;;;;;;;;;;;;;;;;;;4939935;28;137690;-62
2022/05/22 14:27:32;;;;;;;;;;;;;;;;;;4941327;28;138753;-64
2022/05/22 14:29:58;;;;;;;;;;;;;;;;;;4935814;28;136305;-62
2022/05/22 14:32:24;;;;;;;;;;;;;;;;;;4934023;28;138625;-62
2022/05/22 14:34:50;;;;;;;;;;;;;;;;;;4939606;28;116662;-62
2022/05/22 14:37:17;;;;;;;;;;;;;;;;;;4936146;28;137315;-63
2022/05/22 14:39:43;;;;;;;;;;;;;;;;;;4938664;28;138258;-63
2022/05/22 14:42:10;;;;;;;;;;;;;;;;;;4943483;28;122822;-62
2022/05/22 14:44:36;;;;;;;;;;;;;;;;;;4944697;28;132207;-63
2022/05/22 14:47:02;;;;;;;;;;;;;;;;;;4945289;28;137715;-62
2022/05/22 14:49:29;;;;;;;;;;;;;;;;;;4944058;28;110753;-62
2022/05/22 14:51:56;;;;;;;;;;;;;;;;;;4945082;28;136071;-63
2022/05/22 14:54:22;;;;;;;;;;;;;;;;;;4940178;28;122337;-64
2022/05/22 14:56:49;;;;;;;;;;;;;;;;;;4938837;28;111977;-62
2022/05/22 14:59:15;;;;;;;;;;;;;;;;;;4929818;28;138738;-64
2022/05/22 15:01:42;;;;;;;;;;;;;;;;;;4943503;28;110494;-64
2022/05/22 15:04:11;;;;;;;;;;;;;;;;;;4945448;28;138027;-64
2022/05/22 15:06:38;;;;;;;;;;;;;;;;;;4937978;28;137632;-64
2022/05/22 15:09:04;;;;;;;;;;;;;;;;;;4938535;28;123988;-65
2022/05/22 15:11:31;;;;;;;;;;;;;;;;;;4944332;28;135999;-66
2022/05/22 15:13:58;;;;;;;;;;;;;;;;;;4948066;28;106739;-64
2022/05/22 15:16:24;;;;;;;;;;;;;;;;;;4940523;28;137450;-66
2022/05/22 15:21:35;;;;;;;;;;;;;;;;;;4938245;28;126140;-65
2022/05/22 15:26:47;;;;;;;;;;;;;;;;;;4940327;28;131116;-64
2022/05/22 15:29:13;;;;;;;;;;;;;;;;;;4945057;28;120171;-64
2022/05/22 15:31:40;;;;;;;;;;;;;;;;;;4942916;28;107543;-64
2022/05/22 15:34:06;;;;;;;;;;;;;;;;;;4935425;28;124131;-64
2022/05/22 15:36:34;;;;;;;;;;;;;;;;;;4956358;28;115392;-66
2022/05/22 15:39:02;;;;;;;;;;;;;;;;;;4940691;28;136014;-64
2022/05/22 15:41:28;;;;;;;;;;;;;;;;;;4936175;28;122592;-65
2022/05/22 15:43:54;;;;;;;;;;;;;;;;;;4942563;28;123543;-64
2022/05/22 15:46:22;;;;;;;;;;;;;;;;;;4948814;28;138176;-66
2022/05/22 15:51:35;;;;;;;;;;;;;;;;;;4944162;28;137265;-66
2022/05/22 15:54:01;;;;;;;;;;;;;;;;;;4946369;28;132801;-65
2022/05/22 15:56:28;;;;;;;;;;;;;;;;;;4943063;28;137434;-65
2022/05/22 15:58:54;;;;;;;;;;;;;;;;;;4944623;28;137745;-62
2022/05/22 16:01:20;;;;;;;;;;;;;;;;;;4949575;28;125469;-63
2022/05/22 16:03:47;;;;;;;;;;;;;;;;;;4946281;28;135960;-63
2022/05/22 16:06:13;;;;;;;;;;;;;;;;;;4945197;28;137694;-63
2022/05/22 16:08:39;;;;;;;;;;;;;;;;;;4949000;28;108078;-64
2022/05/22 16:11:10;;;;;;;;;;;;;;;;;;4948694;28;136930;-63
2022/05/22 16:13:36;;;;;;;;;;;;;;;;;;4940085;28;132948;-63
2022/05/22 16:16:03;;;;;;;;;;;;;;;;;;4946267;28;124465;-63
2022/05/22 16:18:29;;;;;;;;;;;;;;;;;;4947854;28;108125;-63
2022/05/22 16:20:56;;;;;;;;;;;;;;;;;;4940716;28;123989;-63
2022/05/22 16:23:22;;;;;;;;;;;;;;;;;;4943716;28;138063;-64
2022/05/22 16:25:48;;;;;;;;;;;;;;;;;;4943007;28;137672;-63
2022/05/22 16:28:15;;;;;;;;;;;;;;;;;;4946080;28;123556;-63
2022/05/22 16:30:41;;;;;;;;;;;;;;;;;;4945920;28;138261;-64
2022/05/22 16:33:08;;;;;;;;;;;;;;;;;;4945282;28;137129;-63
2022/05/22 16:35:37;;;;;;;;;;;;;;;;;;4946111;28;119583;-63
2022/05/22 16:38:03;;;;;;;;;;;;;;;;;;4950658;28;137472;-63
2022/05/22 16:40:29;;;;;;;;;;;;;;;;;;4946312;28;121339;-63
2022/05/22 16:43:04;;;;;;;;;;;;;;;;;;4937156;28;135767;-63
2022/05/22 16:45:34;;;;;;;;;;;;;;;;;;4945612;28;113921;-63
2022/05/22 16:53:33;;;;;;;;;;;;;;;;;;4948385;28;127496;-63
2022/05/22 16:55:59;;;;;;;;;;;;;;;;;;4946395;28;124437;-62
2022/05/22 16:58:25;;;;;;;;;;;;;;;;;;4946059;28;136509;-63
2022/05/22 17:00:52;;;;;;;;;;;;;;;;;;4948770;28;138390;-63
2022/05/22 17:03:19;;;;;;;;;;;;;;;;;;4945870;28;107277;-62
2022/05/22 17:05:46;;;;;;;;;;;;;;;;;;4942413;28;109226;-63
2022/05/22 17:08:12;;;;;;;;;;;;;;;;;;4945165;28;107073;-63
2022/05/22 17:10:38;;;;;;;;;;;;;;;;;;4944158;28;111540;-64
2022/05/22 17:13:05;;;;;;;;;;;;;;;;;;4945294;28;138205;-63
2022/05/22 17:15:31;;;;;;;;;;;;;;;;;;4939841;28;123775;-63
2022/05/22 17:17:57;;;;;;;;;;;;;;;;;;4942534;28;135466;-63
2022/05/22 17:20:24;;;;;;;;;;;;;;;;;;4931773;28;108228;-64
2022/05/22 17:22:52;;;;;;;;;;;;;;;;;;4946352;28;106340;-63
2022/05/22 17:25:18;;;;;;;;;;;;;;;;;;4943525;28;138544;-63